createdAt,value
2022-11-08T00:02:35.745Z,11.88
2022-11-08T00:08:07.170Z,11.82
2022-11-08T00:13:38.877Z,11.66
2022-11-08T00:19:11.098Z,11.51
2022-11-08T00:24:42.319Z,11.6
2022-11-08T00:30:14.073Z,11.56
2022-11-08T00:35:45.782Z,11.59
2022-11-08T00:41:18.080Z,11.62
2022-11-08T00:46:49.216Z,11.71
2022-11-08T00:52:25.296Z,11.61
2022-11-08T00:58:00.221Z,11.87
2022-11-08T01:03:28.750Z,11.72
2022-11-08T01:09:00.495Z,11.8
2022-11-08T01:14:32.440Z,11.76
2022-11-08T01:20:03.941Z,11.58
2022-11-08T01:25:35.872Z,11.57
2022-11-08T01:31:07.644Z,11.62
2022-11-08T01:36:39.387Z,11.76
2022-11-08T01:42:11.061Z,11.79
2022-11-08T01:47:42.756Z,11.72
2022-11-08T01:53:18.812Z,11.6
2022-11-08T01:58:50.546Z,11.5
2022-11-08T02:04:22.452Z,11.56
2022-11-08T02:09:54.083Z,11.45
2022-11-08T02:15:25.539Z,11.33
2022-11-08T02:20:57.253Z,11.33
2022-11-08T02:26:29.213Z,11.19
2022-11-08T02:32:00.949Z,11.04
2022-11-08T02:37:32.447Z,11.01
2022-11-08T02:43:04.343Z,10.86
2022-11-08T02:48:35.831Z,10.8
2022-11-08T02:54:11.951Z,10.79
2022-11-08T02:59:43.872Z,10.78
2022-11-08T03:05:15.643Z,10.6
2022-11-08T03:10:47.118Z,10.67
2022-11-08T03:16:19.006Z,10.78
2022-11-08T03:21:50.795Z,10.6
2022-11-08T03:27:22.274Z,10.61
2022-11-08T03:32:54.020Z,10.74
2022-11-08T03:38:25.717Z,10.83
2022-11-08T03:43:57.422Z,10.94
2022-11-08T03:49:29.354Z,10.89
2022-11-08T03:55:05.502Z,10.85
2022-11-08T04:00:36.969Z,10.83
2022-11-08T04:06:08.998Z,10.77
2022-11-08T04:11:40.625Z,10.65
2022-11-08T04:17:12.166Z,10.6
2022-11-08T04:22:43.849Z,10.53
2022-11-08T04:28:15.818Z,10.51
2022-11-08T04:33:47.331Z,10.45
2022-11-08T04:39:19.065Z,10.36
2022-11-08T04:44:50.788Z,10.38
2022-11-08T04:50:22.732Z,10.37
2022-11-08T04:55:58.860Z,10.26
2022-11-08T05:01:30.487Z,10.35
2022-11-08T05:07:02.003Z,10.19
2022-11-08T05:12:33.753Z,10.27
2022-11-08T05:18:05.482Z,10.22
2022-11-08T05:23:37.435Z,10.19
2022-11-08T05:29:09.242Z,10.22
2022-11-08T05:34:41.153Z,10.15
2022-11-08T05:40:12.398Z,10.2
2022-11-08T05:45:44.106Z,10.13
2022-11-08T05:51:16.178Z,10.05
2022-11-08T05:56:51.949Z,9.97
2022-11-08T06:02:23.757Z,9.76
2022-11-08T06:07:56.054Z,9.77
2022-11-08T06:13:27.326Z,9.6
2022-11-08T06:18:59.001Z,9.75
2022-11-08T06:24:30.545Z,9.65
2022-11-08T06:30:02.301Z,9.73
2022-11-08T06:35:34.211Z,9.82
2022-11-08T06:41:05.745Z,9.75
2022-11-08T06:46:38.260Z,9.72
2022-11-08T06:52:09.161Z,9.62
2022-11-08T06:57:45.543Z,9.62
2022-11-08T07:03:17.286Z,9.84
2022-11-08T07:08:49.180Z,10.01
2022-11-08T07:14:20.734Z,10.06
2022-11-08T07:19:52.217Z,10.18
2022-11-08T07:25:24.111Z,10.33
2022-11-08T07:30:55.867Z,10.16
2022-11-08T07:36:27.443Z,10.4
2022-11-08T07:41:59.110Z,10.37
2022-11-08T07:47:30.990Z,10.62
2022-11-08T07:53:02.987Z,10.66
2022-11-08T07:58:41.240Z,10.73
2022-11-08T08:04:12.570Z,10.66
2022-11-08T08:09:44.095Z,10.71
2022-11-08T08:15:15.838Z,10.92
2022-11-08T08:20:47.531Z,10.79
2022-11-08T08:26:19.282Z,11.38
2022-11-08T08:31:50.989Z,11.79
2022-11-08T08:37:22.746Z,11.89
2022-11-08T08:42:54.654Z,12.46
2022-11-08T08:48:26.641Z,12.36
2022-11-08T08:53:58.118Z,12.96
2022-11-08T09:05:05.925Z,13.12
2022-11-08T09:10:37.491Z,13.14
2022-11-08T09:16:09.442Z,13.28
2022-11-08T09:21:40.936Z,13.62
2022-11-08T09:27:12.710Z,13.51
2022-11-08T09:33:00.083Z,13.88
2022-11-08T09:38:16.245Z,14.16
2022-11-08T09:43:47.796Z,14.06
2022-11-08T09:49:19.733Z,14.14
2022-11-08T09:54:51.237Z,14.16
2022-11-08T10:00:27.343Z,14.18
2022-11-08T10:05:59.067Z,14.27
2022-11-08T10:11:31.010Z,14.41
2022-11-08T10:17:02.511Z,14.43
2022-11-08T10:22:34.533Z,14.54
2022-11-08T10:28:05.972Z,14.65
2022-11-08T10:33:37.825Z,14.59
2022-11-08T10:39:09.537Z,14.95
2022-11-08T10:44:41.125Z,15.27
2022-11-08T10:50:12.913Z,15.35
2022-11-08T10:55:44.850Z,15.51
2022-11-08T11:01:21.037Z,15.5
2022-11-08T11:06:53.149Z,15.58
2022-11-08T11:12:24.270Z,15.77
2022-11-08T11:17:55.854Z,15.79
2022-11-08T11:23:27.759Z,15.92
2022-11-08T11:28:59.294Z,16.26
2022-11-08T11:34:31.039Z,16.54
2022-11-08T11:40:02.826Z,17.05
2022-11-08T11:45:34.465Z,17.15
2022-11-08T11:51:06.226Z,17.47
2022-11-08T11:56:37.993Z,17.6
2022-11-08T12:02:14.206Z,17.86
2022-11-08T12:07:45.926Z,17.76
2022-11-08T12:13:17.598Z,17.84
2022-11-08T12:18:49.617Z,18.09
2022-11-08T12:24:20.886Z,18.21
2022-11-08T12:29:52.653Z,18.13
2022-11-08T12:35:24.430Z,18.17
2022-11-08T12:40:56.220Z,18.08
2022-11-08T12:46:28.147Z,18.25
2022-11-08T12:51:59.726Z,18.13
2022-11-08T12:57:31.271Z,18.15
2022-11-08T13:03:07.392Z,18.12
2022-11-08T13:08:40.127Z,18.35
2022-11-08T13:14:11.202Z,18.5
2022-11-08T13:19:43.115Z,18.52
2022-11-08T13:25:14.701Z,18.47
2022-11-08T13:30:46.409Z,18.28
2022-11-08T13:36:18.281Z,18.29
2022-11-08T13:41:49.820Z,18.36
2022-11-08T13:47:21.524Z,18.36
2022-11-08T13:52:53.299Z,18.44
2022-11-08T13:58:25.147Z,18.31
2022-11-08T14:04:01.686Z,18.32
2022-11-08T14:09:33.696Z,18.27
2022-11-08T14:15:04.766Z,18.21
2022-11-08T14:20:36.455Z,18.16
2022-11-08T14:26:08.028Z,18.26
2022-11-08T14:31:39.735Z,18.08
2022-11-08T14:37:11.439Z,17.94
2022-11-08T14:42:43.178Z,18.08
2022-11-08T14:48:14.918Z,17.78
2022-11-08T14:53:46.957Z,17.76
2022-11-08T14:59:18.322Z,17.83
2022-11-08T15:04:56.465Z,17.67
2022-11-08T15:10:28.438Z,17.71
2022-11-08T15:16:00.144Z,17.67
2022-11-08T15:21:31.762Z,17.8
2022-11-08T15:27:03.401Z,17.53
2022-11-08T15:32:35.158Z,17.45
2022-11-08T15:38:06.812Z,17.31
2022-11-08T15:43:38.636Z,17.46
2022-11-08T15:49:10.525Z,17.45
2022-11-08T15:54:42.297Z,17.35
2022-11-08T16:00:13.944Z,17.27
2022-11-08T16:05:50.212Z,17.29
2022-11-08T16:11:21.733Z,17.31
2022-11-08T16:16:53.765Z,17.15
2022-11-08T16:22:25.742Z,16.95
2022-11-08T16:27:56.947Z,16.89
2022-11-08T16:33:28.681Z,16.66
2022-11-08T16:39:00.705Z,16.62
2022-11-08T16:44:32.129Z,16.46
2022-11-08T16:50:04.071Z,16.37
2022-11-08T16:55:35.571Z,16.28
2022-11-08T17:01:10.128Z,16.27
2022-11-08T17:06:43.415Z,16.3
2022-11-08T17:12:15.206Z,16.21
2022-11-08T17:17:46.847Z,16.23
2022-11-08T17:23:18.749Z,16.23
2022-11-08T17:28:50.247Z,16.21
2022-11-08T17:34:22.027Z,16.04
2022-11-08T17:39:53.738Z,16.13
2022-11-08T17:45:25.719Z,16.28
2022-11-08T17:50:57.450Z,15.93
2022-11-08T17:56:29.149Z,16.17
2022-11-08T18:02:01.175Z,16.15
2022-11-08T18:07:36.978Z,16.06
2022-11-08T18:13:08.501Z,15.85
2022-11-08T18:18:40.165Z,15.89
2022-11-08T18:24:12.074Z,15.79
2022-11-08T18:29:43.642Z,15.77
2022-11-08T18:35:15.517Z,15.54
2022-11-08T18:40:47.122Z,15.7
2022-11-08T18:46:19.137Z,15.71
2022-11-08T18:51:50.732Z,15.54
2022-11-08T18:57:22.498Z,15.49
2022-11-08T19:02:54.022Z,15.34
2022-11-08T19:08:30.270Z,15.22
2022-11-08T19:14:01.937Z,15.15
2022-11-08T19:19:33.881Z,15.16
2022-11-08T19:25:05.552Z,15.14
2022-11-08T19:30:37.179Z,15.09
2022-11-08T19:36:09.062Z,15.1
2022-11-08T19:41:40.722Z,15.22
2022-11-08T19:47:19.185Z,15.31
2022-11-08T19:52:50.825Z,15.31
2022-11-08T19:58:22.813Z,15.26
2022-11-08T20:03:54.346Z,15.03
2022-11-08T20:09:31.027Z,14.86
2022-11-08T20:15:02.175Z,14.79
2022-11-08T20:20:33.952Z,14.74
2022-11-08T20:26:05.581Z,14.66
2022-11-08T20:31:37.331Z,14.51
2022-11-08T20:37:09.054Z,14.48
2022-11-08T20:42:41.031Z,14.59
2022-11-08T20:48:14.091Z,14.53
2022-11-08T20:53:44.500Z,14.64
2022-11-08T20:59:15.999Z,14.71
2022-11-08T21:04:47.662Z,14.85
2022-11-08T21:10:41.279Z,14.69
2022-11-08T21:16:01.058Z,14.72
2022-11-08T21:21:27.216Z,14.63
2022-11-08T21:26:59.090Z,14.57
2022-11-08T21:32:30.880Z,14.63
2022-11-08T21:38:02.562Z,14.65
2022-11-08T21:43:34.119Z,14.59
2022-11-08T21:49:05.822Z,14.49
2022-11-08T21:54:38.195Z,14.45
2022-11-08T22:00:09.277Z,14.26
2022-11-08T22:05:41.195Z,14.21
2022-11-08T22:11:19.084Z,14.03
2022-11-08T22:16:50.839Z,13.99
2022-11-08T22:22:22.718Z,13.93
2022-11-08T22:27:54.275Z,13.99
2022-11-08T22:33:26.425Z,13.99
2022-11-08T22:38:57.697Z,13.95
2022-11-08T22:44:29.413Z,13.91
2022-11-08T22:50:01.298Z,13.9
2022-11-08T22:55:33.479Z,14.0
2022-11-08T23:01:04.978Z,14.12
2022-11-08T23:06:36.501Z,13.75
2022-11-08T23:12:13.090Z,13.39
2022-11-08T23:17:44.159Z,13.52
2022-11-08T23:23:15.929Z,13.63
2022-11-08T23:28:47.674Z,13.71
2022-11-08T23:34:19.354Z,13.73
2022-11-08T23:39:51.147Z,13.77
2022-11-08T23:45:23.290Z,13.81
2022-11-08T23:50:54.444Z,13.82
2022-11-08T23:56:26.179Z,13.85
